createdAt,value
2022-11-03T00:00:56.178Z,98180.00
2022-11-03T00:04:59.334Z,98184.00
2022-11-03T00:09:02.932Z,98179.00
2022-11-03T00:13:04.226Z,98130.00
2022-11-03T00:17:05.743Z,98177.00
2022-11-03T00:21:12.241Z,98167.00
2022-11-03T00:25:13.560Z,98172.00
2022-11-03T00:29:15.062Z,98169.00
2022-11-03T00:33:16.237Z,98159.00
2022-11-03T00:37:17.348Z,98152.00
2022-11-03T00:41:20.484Z,98150.00
2022-11-03T00:45:21.809Z,98134.00
2022-11-03T00:49:22.977Z,98124.00
2022-11-03T00:53:24.333Z,98120.00
2022-11-03T00:57:25.428Z,98123.00
2022-11-03T01:01:30.694Z,98126.00
2022-11-03T01:05:50.355Z,98128.00
2022-11-03T01:09:51.369Z,98131.00
2022-11-03T01:13:52.828Z,98115.00
2022-11-03T01:17:53.901Z,98113.00
2022-11-03T01:21:55.171Z,98113.00
2022-11-03T01:25:56.315Z,98111.00
2022-11-03T01:29:57.375Z,98121.00
2022-11-03T01:33:58.376Z,98114.00
2022-11-03T01:37:59.536Z,98112.00
2022-11-03T01:42:00.977Z,98095.00
2022-11-03T01:46:18.188Z,98086.00
2022-11-03T01:50:19.977Z,98076.00
2022-11-03T01:54:24.079Z,98079.00
2022-11-03T01:58:28.915Z,98068.00
2022-11-03T02:02:30.172Z,98050.00
2022-11-03T02:06:31.836Z,98055.00
2022-11-03T02:10:34.450Z,98052.00
2022-11-03T02:14:39.262Z,98052.00
2022-11-03T02:18:42.326Z,98022.00
2022-11-03T02:22:50.504Z,98012.00
2022-11-03T02:26:55.037Z,98021.00
2022-11-03T02:31:06.249Z,98015.00
2022-11-03T02:35:19.043Z,98024.00
2022-11-03T02:39:36.321Z,98012.00
2022-11-03T02:43:38.972Z,98012.00
2022-11-03T02:47:42.426Z,98010.00
2022-11-03T02:51:43.558Z,98011.00
2022-11-03T02:56:03.779Z,97994.00
2022-11-03T03:00:08.947Z,97998.00
2022-11-03T03:04:10.652Z,97987.00
2022-11-03T03:08:12.451Z,97989.00
2022-11-03T03:12:16.746Z,97976.00
2022-11-03T03:16:26.639Z,97969.00
2022-11-03T03:20:52.382Z,97969.00
2022-11-03T03:25:06.024Z,97968.00
2022-11-03T03:29:10.849Z,97957.00
2022-11-03T03:33:14.450Z,97957.00
2022-11-03T03:37:17.222Z,97954.00
2022-11-03T03:41:22.503Z,97948.00
2022-11-03T03:45:26.032Z,97943.00
2022-11-03T03:49:27.632Z,97931.00
2022-11-03T03:53:30.175Z,97930.00
2022-11-03T03:57:31.414Z,97930.00
2022-11-03T04:01:32.743Z,97929.00
2022-11-03T04:05:34.039Z,97921.00
2022-11-03T04:09:35.374Z,97910.00
2022-11-03T04:13:55.176Z,97902.00
2022-11-03T04:18:14.771Z,97903.00
2022-11-03T04:22:16.299Z,97900.00
2022-11-03T04:26:18.783Z,97879.00
2022-11-03T04:30:21.554Z,97888.00
2022-11-03T04:34:23.974Z,97891.00
2022-11-03T04:38:27.054Z,97879.00
2022-11-03T04:42:31.861Z,97886.00
2022-11-03T04:46:33.253Z,97875.00
2022-11-03T04:50:34.493Z,97878.00
2022-11-03T04:54:38.604Z,97877.00
2022-11-03T04:58:39.628Z,97884.00
2022-11-03T05:02:41.726Z,97876.00
2022-11-03T05:06:52.070Z,97869.00
2022-11-03T05:10:53.234Z,97853.00
2022-11-03T05:14:58.234Z,97850.00
2022-11-03T05:18:58.057Z,97846.00
2022-11-03T05:23:00.342Z,97842.00
2022-11-03T05:27:01.568Z,97827.00
2022-11-03T05:31:23.286Z,97840.00
2022-11-03T05:35:24.362Z,97818.00
2022-11-03T05:39:31.324Z,97816.00
2022-11-03T05:43:33.230Z,97816.00
2022-11-03T05:47:37.459Z,97812.00
2022-11-03T05:51:41.337Z,97813.00
2022-11-03T05:55:42.990Z,97804.00
2022-11-03T05:59:46.926Z,97804.00
2022-11-03T06:03:48.473Z,97804.00
2022-11-03T06:07:52.051Z,97800.00
2022-11-03T06:11:55.892Z,97787.00
2022-11-03T06:16:00.765Z,97780.00
2022-11-03T06:20:02.096Z,97781.00
2022-11-03T06:24:03.682Z,97786.00
2022-11-03T06:28:07.816Z,97786.00
2022-11-03T06:32:11.821Z,97792.00
2022-11-03T06:36:18.913Z,97785.00
2022-11-03T06:40:24.349Z,97778.00
2022-11-03T06:44:27.999Z,97780.00
2022-11-03T06:48:29.991Z,97772.00
2022-11-03T06:52:34.640Z,97773.00
2022-11-03T06:56:36.718Z,97766.00
2022-11-03T07:00:41.539Z,97754.00
2022-11-03T07:04:43.163Z,97748.00
2022-11-03T07:08:50.384Z,97713.00
2022-11-03T07:12:52.427Z,97734.00
2022-11-03T07:16:57.225Z,97733.00
2022-11-03T07:20:59.825Z,97723.00
2022-11-03T07:25:03.283Z,97723.00
2022-11-03T07:29:04.788Z,97738.00
2022-11-03T07:33:12.964Z,97725.00
2022-11-03T07:37:17.774Z,97715.00
2022-11-03T07:41:29.541Z,97709.00
2022-11-03T07:45:51.040Z,97697.00
2022-11-03T07:49:54.570Z,97685.00
2022-11-03T07:54:14.661Z,97686.00
2022-11-03T07:58:19.550Z,97678.00
2022-11-03T08:02:27.611Z,97682.00
2022-11-03T08:06:28.788Z,97673.00
2022-11-03T08:10:30.305Z,97666.00
2022-11-03T08:14:31.389Z,97660.00
2022-11-03T08:18:32.573Z,97641.00
2022-11-03T08:22:33.996Z,97627.00
2022-11-03T08:26:35.237Z,97635.00
2022-11-03T08:30:36.257Z,97625.00
2022-11-03T08:34:37.643Z,97615.00
2022-11-03T08:38:38.596Z,97628.00
2022-11-03T08:42:39.673Z,97653.00
2022-11-03T08:46:40.889Z,97639.00
2022-11-03T08:50:41.904Z,97629.00
2022-11-03T08:54:43.232Z,97469.00
2022-11-03T08:58:44.372Z,97606.00
2022-11-03T09:02:46.069Z,97608.00
2022-11-03T09:06:47.216Z,97615.00
2022-11-03T09:10:48.290Z,97610.00
2022-11-03T09:14:49.444Z,97623.00
2022-11-03T09:18:50.532Z,97613.00
2022-11-03T09:22:52.653Z,97614.00
2022-11-03T09:26:55.962Z,97619.00
2022-11-03T09:30:56.903Z,97584.00
2022-11-03T09:34:58.011Z,97577.00
2022-11-03T09:38:59.078Z,97575.00
2022-11-03T09:43:00.289Z,97558.00
2022-11-03T09:47:02.791Z,97535.00
2022-11-03T09:51:04.455Z,97536.00
2022-11-03T09:55:15.490Z,97537.00
2022-11-03T09:59:19.410Z,97539.00
2022-11-03T10:03:20.871Z,97517.00
2022-11-03T10:07:23.144Z,97510.00
2022-11-03T10:11:24.482Z,97497.00
2022-11-03T10:15:26.842Z,97510.00
2022-11-03T10:19:28.069Z,97496.00
2022-11-03T10:23:29.407Z,97483.00
2022-11-03T10:27:30.687Z,97482.00
2022-11-03T10:31:37.770Z,97463.00
2022-11-03T10:35:40.752Z,97450.00
2022-11-03T10:39:42.022Z,97419.00
2022-11-03T10:43:45.411Z,97406.00
2022-11-03T10:48:01.557Z,97399.00
2022-11-03T10:52:24.132Z,97403.00
2022-11-03T10:56:25.858Z,97410.00
2022-11-03T11:00:28.832Z,97418.00
2022-11-03T11:04:32.142Z,97410.00
2022-11-03T11:08:33.428Z,97391.00
2022-11-03T11:12:34.845Z,97382.00
2022-11-03T11:16:56.868Z,97364.00
2022-11-03T11:21:04.027Z,97366.00
2022-11-03T11:25:05.729Z,97378.00
2022-11-03T11:29:15.164Z,97356.00
2022-11-03T11:33:25.661Z,97344.00
2022-11-03T11:37:30.555Z,97335.00
2022-11-03T11:41:54.682Z,97327.00
2022-11-03T11:46:25.566Z,97307.00
2022-11-03T11:50:29.197Z,97300.00
2022-11-03T11:54:30.641Z,97314.00
2022-11-03T11:58:47.725Z,97316.00
2022-11-03T12:02:51.657Z,97309.00
2022-11-03T12:06:53.040Z,97299.00
2022-11-03T12:10:56.821Z,97298.00
2022-11-03T12:14:58.174Z,97287.00
2022-11-03T12:19:29.209Z,97282.00
2022-11-03T12:23:36.276Z,97258.00
2022-11-03T12:27:41.878Z,97266.00
2022-11-03T12:31:42.940Z,97258.00
2022-11-03T12:35:44.164Z,97258.00
2022-11-03T12:39:45.275Z,97239.00
2022-11-03T12:43:53.511Z,97224.00
2022-11-03T12:47:54.720Z,97216.00
2022-11-03T12:51:56.090Z,97207.00
2022-11-03T12:55:57.232Z,97214.00
2022-11-03T12:59:58.373Z,97202.00
2022-11-03T13:04:00.000Z,97195.00
2022-11-03T13:08:01.090Z,97176.00
2022-11-03T13:12:20.646Z,97177.00
2022-11-03T13:16:22.438Z,97171.00
2022-11-03T13:20:24.008Z,97155.00
2022-11-03T13:24:25.201Z,97137.00
2022-11-03T13:28:26.515Z,97146.00
2022-11-03T13:32:27.818Z,97160.00
2022-11-03T13:36:28.925Z,97163.00
2022-11-03T13:44:33.121Z,97104.00
2022-11-03T13:52:37.444Z,97083.00
2022-11-03T14:00:41.813Z,97075.00
2022-11-03T14:04:43.902Z,97064.00
2022-11-03T14:08:45.437Z,97060.00
2022-11-03T14:12:46.738Z,97059.00
2022-11-03T14:16:47.670Z,97038.00
2022-11-03T14:20:48.620Z,97031.00
2022-11-03T14:24:50.447Z,97018.00
2022-11-03T14:28:51.434Z,97003.00
2022-11-03T14:32:58.284Z,96998.00
2022-11-03T14:36:56.061Z,97004.00
2022-11-03T14:41:15.751Z,96996.00
2022-11-03T14:45:16.717Z,96980.00
2022-11-03T14:49:17.582Z,96970.00
2022-11-03T14:53:18.929Z,96959.00
2022-11-03T14:57:20.268Z,96946.00
2022-11-03T15:01:21.356Z,96948.00
2022-11-03T15:05:40.891Z,96948.00
2022-11-03T15:09:41.769Z,96957.00
2022-11-03T15:13:45.978Z,96953.00
2022-11-03T15:17:45.577Z,96955.00
2022-11-03T15:21:46.537Z,96947.00
2022-11-03T15:25:47.582Z,96953.00
2022-11-03T15:29:48.555Z,96948.00
2022-11-03T15:33:49.784Z,96944.00
2022-11-03T15:37:50.969Z,96940.00
2022-11-03T15:41:51.885Z,96926.00
2022-11-03T15:45:52.762Z,96917.00
2022-11-03T15:49:56.921Z,96906.00
2022-11-03T15:53:59.057Z,96903.00
2022-11-03T15:58:02.937Z,96894.00
2022-11-03T16:02:14.175Z,96891.00
2022-11-03T16:06:07.090Z,96876.00
2022-11-03T16:10:08.608Z,96871.00
2022-11-03T16:14:10.409Z,96872.00
2022-11-03T16:18:11.565Z,96864.00
2022-11-03T16:22:12.760Z,96853.00
2022-11-03T16:26:14.141Z,96847.00
2022-11-03T16:30:19.426Z,96837.00
2022-11-03T16:34:20.660Z,96842.00
2022-11-03T16:38:22.678Z,96823.00
2022-11-03T16:42:24.401Z,96826.00
2022-11-03T16:46:25.778Z,96812.00
2022-11-03T16:50:27.505Z,96818.00
2022-11-03T16:54:28.612Z,96809.00
2022-11-03T16:58:29.781Z,96809.00
2022-11-03T17:02:31.231Z,96808.00
2022-11-03T17:06:32.362Z,96807.00
2022-11-03T17:10:33.698Z,96800.00
2022-11-03T17:14:35.595Z,96792.00
2022-11-03T17:18:36.759Z,96792.00
2022-11-03T17:22:38.608Z,96789.00
2022-11-03T17:27:07.931Z,96785.00
2022-11-03T17:31:10.615Z,96779.00
2022-11-03T17:35:24.690Z,96771.00
2022-11-03T17:39:29.799Z,96762.00
2022-11-03T17:43:32.541Z,96746.00
2022-11-03T17:47:35.543Z,96725.00
2022-11-03T17:51:40.741Z,96716.00
2022-11-03T17:55:41.822Z,96699.00
2022-11-03T17:59:45.423Z,96693.00
2022-11-03T18:03:46.792Z,96696.00
2022-11-03T18:07:48.303Z,96694.00
2022-11-03T18:12:08.008Z,96694.00
2022-11-03T18:16:11.820Z,96694.00
2022-11-03T18:20:16.682Z,96681.00
2022-11-03T18:24:19.697Z,96664.00
2022-11-03T18:28:21.256Z,96664.00
2022-11-03T18:32:22.232Z,96656.00
2022-11-03T18:36:24.021Z,96641.00
2022-11-03T18:40:25.637Z,96647.00
2022-11-03T18:44:30.011Z,96631.00
2022-11-03T18:48:31.145Z,96627.00
2022-11-03T18:52:35.694Z,96616.00
2022-11-03T18:56:38.280Z,96615.00
2022-11-03T19:00:39.675Z,96623.00
2022-11-03T19:04:41.732Z,96633.00
2022-11-03T19:08:44.794Z,96594.00
2022-11-03T19:12:46.609Z,96645.00
2022-11-03T19:17:21.333Z,96661.00
2022-11-03T19:20:53.303Z,96651.00
2022-11-03T19:24:54.440Z,96667.00
2022-11-03T19:29:05.280Z,96686.00
2022-11-03T19:33:09.568Z,96652.00
2022-11-03T19:37:11.419Z,96637.00
2022-11-03T19:41:33.925Z,96629.00
2022-11-03T19:45:35.214Z,96610.00
2022-11-03T19:49:36.357Z,96585.00
2022-11-03T19:53:37.895Z,96589.00
2022-11-03T19:57:39.010Z,96578.00
2022-11-03T20:01:40.477Z,96581.00
2022-11-03T20:05:48.114Z,96567.00
2022-11-03T20:09:46.878Z,96568.00
2022-11-03T20:13:48.366Z,96558.00
2022-11-03T20:17:50.488Z,96558.00
2022-11-03T20:21:51.926Z,96541.00
2022-11-03T20:25:54.584Z,96542.00
2022-11-03T20:29:56.836Z,96537.00
2022-11-03T20:33:57.919Z,96534.00
2022-11-03T20:37:59.212Z,96539.00
2022-11-03T20:42:00.630Z,96536.00
2022-11-03T20:46:05.727Z,96514.00
2022-11-03T20:50:09.559Z,96554.00
2022-11-03T20:54:19.783Z,96521.00
2022-11-03T20:58:21.162Z,96515.00
2022-11-03T21:02:23.211Z,96519.00
2022-11-03T21:06:25.752Z,96533.00
2022-11-03T21:10:27.996Z,96540.00
2022-11-03T21:14:30.677Z,96518.00
2022-11-03T21:18:50.778Z,96513.00
2022-11-03T21:22:54.340Z,96517.00
2022-11-03T21:26:54.928Z,96519.00
2022-11-03T21:30:56.530Z,96528.00
2022-11-03T21:34:58.158Z,96524.00
2022-11-03T21:38:59.374Z,96514.00
2022-11-03T21:43:19.551Z,96504.00
2022-11-03T21:47:21.019Z,96511.00
2022-11-03T21:51:22.862Z,96508.00
2022-11-03T21:55:25.312Z,96493.00
2022-11-03T21:59:26.436Z,96505.00
2022-11-03T22:03:29.965Z,96495.00
2022-11-03T22:07:31.928Z,96489.00
2022-11-03T22:11:33.889Z,96475.00
2022-11-03T22:15:53.983Z,96494.00
2022-11-03T22:20:13.365Z,96517.00
2022-11-03T22:24:32.963Z,96524.00
2022-11-03T22:28:34.696Z,96529.00
2022-11-03T22:32:36.977Z,96553.00
2022-11-03T22:36:38.093Z,96551.00
2022-11-03T22:40:59.231Z,96525.00
2022-11-03T22:45:19.209Z,96519.00
2022-11-03T22:49:20.488Z,96529.00
2022-11-03T22:53:40.082Z,96542.00
2022-11-03T22:57:42.660Z,96556.00
2022-11-03T23:01:43.916Z,96569.00
2022-11-03T23:05:45.230Z,96552.00
2022-11-03T23:09:46.350Z,96570.00
2022-11-03T23:13:56.222Z,96571.00
2022-11-03T23:18:16.915Z,96564.00
2022-11-03T23:22:18.113Z,96561.00
2022-11-03T23:26:20.515Z,96588.00
2022-11-03T23:30:21.561Z,96585.00
2022-11-03T23:34:26.314Z,96588.00
2022-11-03T23:38:27.508Z,96597.00
2022-11-03T23:42:28.890Z,96582.00
2022-11-03T23:46:48.436Z,96593.00
2022-11-03T23:50:49.505Z,96609.00
2022-11-03T23:54:50.530Z,96604.00
2022-11-03T23:58:52.119Z,96620.00
